Avery, Idaho
Current Conditions -  °F | °C
As of 6:53 AM on Friday 24 Oct 2014 (Local Time) from KMLP Reporting Station
Overcast Overcast  
Wind Chill: -4°   Ceiling: 2400
Heat Index:   Visibility: 10mi
Dew Point: -1°   Wind: 8mph
Humidity: 92%   Direction: 230°SW
Pressure: 30.05"   Gusts: NA
Location:  47.25°N, 115.81°W
Report Text: KMLP 241353Z AUTO 23007KT 10SM OVC024 00/M01 A3005 RMK AO2 SLP146 T00001011
Loading
Personal Weather Stations






























Interactive Weather Map
Tropical Storm Tracking
New forecast layout! Learn more

10-Day Weather Forecast

Advertisements
Track Severe Weather on mobile